createdAt,value
2022-10-10T00:02:06.507Z,65.54
2022-10-10T00:04:53.190Z,65.29
2022-10-10T00:07:38.609Z,65.41
2022-10-10T00:10:23.937Z,65.32
2022-10-10T00:13:09.503Z,65.37
2022-10-10T00:15:54.981Z,65.41
2022-10-10T00:18:41.805Z,65.51
2022-10-10T00:21:27.358Z,65.46
2022-10-10T00:24:12.605Z,65.26
2022-10-10T00:26:57.967Z,65.45
2022-10-10T00:29:43.187Z,65.54
2022-10-10T00:32:28.578Z,65.43
2022-10-10T00:35:13.998Z,65.43
2022-10-10T00:37:59.242Z,65.40
2022-10-10T00:40:54.145Z,65.61
2022-10-10T00:43:40.512Z,65.62
2022-10-10T00:46:25.982Z,65.30
2022-10-10T00:49:21.164Z,65.24
2022-10-10T00:52:09.811Z,65.42
2022-10-10T00:54:55.002Z,65.31
2022-10-10T00:57:41.040Z,65.31
2022-10-10T01:00:26.630Z,65.24
2022-10-10T01:03:12.256Z,65.26
2022-10-10T01:05:57.887Z,65.25
2022-10-10T01:08:43.397Z,65.23
2022-10-10T01:11:38.075Z,65.29
2022-10-10T01:14:29.408Z,65.22
2022-10-10T01:17:26.205Z,65.23
2022-10-10T01:20:20.495Z,65.41
2022-10-10T01:23:30.562Z,65.29
2022-10-10T01:26:34.464Z,65.24
2022-10-10T01:29:43.258Z,65.32
2022-10-10T01:32:52.097Z,65.26
2022-10-10T01:35:50.795Z,65.36
2022-10-10T01:38:59.575Z,65.22
2022-10-10T01:41:58.302Z,65.25
2022-10-10T01:44:45.278Z,65.24
2022-10-10T01:47:30.383Z,65.15
2022-10-10T01:50:21.027Z,65.23
2022-10-10T01:53:56.086Z,65.28
2022-10-10T01:57:15.971Z,65.18
2022-10-10T02:00:17.341Z,65.25
2022-10-10T02:03:16.777Z,65.29
2022-10-10T02:06:13.139Z,65.27
2022-10-10T02:09:05.245Z,65.25
2022-10-10T02:11:51.138Z,65.22
2022-10-10T02:14:42.659Z,65.27
2022-10-10T02:17:29.776Z,65.38
2022-10-10T02:20:20.781Z,65.46
2022-10-10T02:23:08.234Z,65.31
2022-10-10T02:25:57.099Z,65.23
2022-10-10T02:28:57.550Z,65.05
2022-10-10T02:32:11.979Z,65.26
2022-10-10T02:35:03.325Z,65.20
2022-10-10T02:37:49.839Z,65.18
2022-10-10T02:40:36.092Z,65.34
2022-10-10T02:43:22.378Z,65.12
2022-10-10T02:46:12.167Z,65.22
2022-10-10T02:48:58.512Z,65.32
2022-10-10T02:51:43.841Z,65.19
2022-10-10T02:54:29.049Z,65.09
2022-10-10T02:57:14.396Z,65.19
2022-10-10T02:59:59.674Z,65.30
2022-10-10T03:02:46.318Z,65.27
2022-10-10T03:05:31.920Z,65.32
2022-10-10T03:08:17.352Z,65.24
2022-10-10T03:11:02.697Z,65.22
2022-10-10T03:13:47.782Z,65.17
2022-10-10T03:16:33.131Z,65.51
2022-10-10T03:19:18.645Z,65.48
2022-10-10T03:22:04.253Z,65.35
2022-10-10T03:24:49.948Z,65.38
2022-10-10T03:27:35.295Z,65.40
2022-10-10T03:30:20.717Z,65.30
2022-10-10T03:33:07.273Z,65.26
2022-10-10T03:35:52.579Z,65.35
2022-10-10T03:38:39.808Z,65.18
2022-10-10T03:41:25.501Z,65.28
2022-10-10T03:44:10.631Z,65.26
2022-10-10T03:46:56.041Z,65.18
2022-10-10T03:49:41.191Z,65.20
2022-10-10T03:52:26.497Z,64.99
2022-10-10T03:55:11.908Z,65.00
2022-10-10T03:57:57.338Z,65.26
2022-10-10T04:00:43.194Z,65.16
2022-10-10T04:03:29.371Z,65.26
2022-10-10T04:06:15.087Z,65.05
2022-10-10T04:09:00.758Z,65.10
2022-10-10T04:11:45.885Z,65.16
2022-10-10T04:14:31.285Z,65.20
2022-10-10T04:17:16.892Z,65.19
2022-10-10T04:20:02.180Z,65.26
2022-10-10T04:22:47.699Z,66.19
2022-10-10T04:25:33.337Z,66.12
2022-10-10T04:28:19.299Z,66.88
2022-10-10T04:31:05.215Z,67.16
2022-10-10T04:33:50.733Z,66.76
2022-10-10T04:36:36.871Z,66.87
2022-10-10T04:39:22.291Z,66.92
2022-10-10T04:42:07.756Z,67.09
2022-10-10T04:44:53.093Z,67.18
2022-10-10T04:47:38.308Z,66.91
2022-10-10T04:50:23.714Z,66.96
2022-10-10T04:53:09.144Z,66.87
2022-10-10T04:55:54.596Z,67.07
2022-10-10T04:58:39.854Z,66.68
2022-10-10T05:01:25.188Z,65.36
2022-10-10T05:04:10.604Z,65.44
2022-10-10T05:06:55.974Z,64.75
2022-10-10T05:09:41.231Z,64.80
2022-10-10T05:12:26.831Z,64.46
2022-10-10T05:15:12.553Z,64.31
2022-10-10T05:17:58.361Z,63.98
2022-10-10T05:20:47.731Z,64.03
2022-10-10T05:23:34.707Z,63.95
2022-10-10T05:26:21.204Z,64.04
2022-10-10T05:29:06.474Z,63.99
2022-10-10T05:31:52.135Z,64.14
2022-10-10T05:34:38.351Z,63.99
2022-10-10T05:37:24.415Z,64.03
2022-10-10T05:40:09.930Z,64.32
2022-10-10T05:42:55.256Z,64.20
2022-10-10T05:45:41.003Z,64.51
2022-10-10T05:48:27.108Z,64.54
2022-10-10T05:51:13.376Z,64.65
2022-10-10T05:54:00.218Z,64.55
2022-10-10T05:56:46.447Z,64.53
2022-10-10T05:59:31.803Z,62.90
2022-10-10T06:02:17.266Z,63.11
2022-10-10T06:05:02.808Z,63.79
2022-10-10T06:08:09.323Z,64.21
2022-10-10T06:10:54.286Z,64.17
2022-10-10T06:13:39.729Z,63.97
2022-10-10T06:16:27.260Z,64.07
2022-10-10T06:19:15.145Z,64.14
2022-10-10T06:22:01.662Z,63.95
2022-10-10T06:24:52.167Z,63.94
2022-10-10T06:27:38.668Z,63.97
2022-10-10T06:30:24.225Z,64.23
2022-10-10T06:33:12.162Z,64.15
2022-10-10T06:35:58.122Z,64.17
2022-10-10T06:38:45.916Z,64.17
2022-10-10T06:41:31.464Z,64.36
2022-10-10T06:44:17.994Z,64.17
2022-10-10T06:47:03.657Z,64.40
2022-10-10T06:49:49.273Z,64.61
2022-10-10T06:52:34.708Z,64.68
2022-10-10T06:55:19.965Z,64.64
2022-10-10T06:58:05.850Z,64.67
2022-10-10T07:00:55.556Z,64.45
2022-10-10T07:03:40.752Z,64.91
2022-10-10T07:06:26.054Z,64.88
2022-10-10T07:09:11.265Z,64.92
2022-10-10T07:11:56.559Z,65.01
2022-10-10T07:14:41.943Z,64.96
2022-10-10T07:17:27.265Z,65.10
2022-10-10T07:20:13.026Z,64.45
2022-10-10T07:22:58.389Z,63.00
2022-10-10T07:25:44.213Z,63.85
2022-10-10T07:28:30.068Z,64.37
2022-10-10T07:31:16.035Z,64.11
2022-10-10T07:34:01.538Z,64.27
2022-10-10T07:36:50.257Z,64.33
2022-10-10T07:39:35.680Z,64.38
2022-10-10T07:42:21.692Z,64.17
2022-10-10T07:45:07.307Z,64.50
2022-10-10T07:47:53.969Z,64.43
2022-10-10T07:50:44.115Z,64.38
2022-10-10T07:53:29.616Z,64.45
2022-10-10T07:56:15.023Z,64.48
2022-10-10T07:59:00.995Z,64.81
2022-10-10T08:01:46.273Z,62.54
2022-10-10T08:04:31.409Z,63.57
2022-10-10T08:07:16.688Z,63.54
2022-10-10T08:10:02.595Z,64.00
2022-10-10T08:12:48.167Z,63.89
2022-10-10T08:15:34.130Z,64.05
2022-10-10T08:18:20.154Z,64.27
2022-10-10T08:21:08.898Z,64.10
2022-10-10T08:23:55.480Z,64.28
2022-10-10T08:26:40.750Z,64.70
2022-10-10T08:29:26.191Z,64.61
2022-10-10T08:32:11.465Z,64.76
2022-10-10T08:34:56.849Z,64.82
2022-10-10T08:37:42.283Z,64.99
2022-10-10T08:40:28.809Z,65.35
2022-10-10T08:43:31.856Z,63.81
2022-10-10T08:46:27.315Z,63.92
2022-10-10T08:49:43.548Z,64.01
2022-10-10T08:52:41.650Z,64.14
2022-10-10T08:55:33.770Z,63.85
2022-10-10T08:58:18.893Z,63.84
2022-10-10T09:01:15.643Z,64.08
2022-10-10T09:04:03.402Z,64.08
2022-10-10T09:07:10.863Z,63.91
2022-10-10T09:10:06.279Z,64.00
2022-10-10T09:13:07.455Z,63.99
2022-10-10T09:16:00.480Z,63.95
2022-10-10T09:19:07.643Z,64.04
2022-10-10T09:21:57.449Z,64.06
2022-10-10T09:25:00.049Z,64.24
2022-10-10T09:27:58.617Z,64.29
2022-10-10T09:30:53.009Z,64.48
2022-10-10T09:33:58.995Z,64.55
2022-10-10T09:36:45.587Z,64.54
2022-10-10T09:39:48.152Z,64.63
2022-10-10T09:42:39.493Z,64.54
2022-10-10T09:45:32.916Z,64.65
2022-10-10T09:48:19.231Z,64.16
2022-10-10T09:51:07.588Z,64.46
2022-10-10T09:53:53.081Z,64.74
2022-10-10T09:56:58.657Z,64.26
2022-10-10T09:59:45.805Z,64.15
2022-10-10T10:02:31.508Z,64.08
2022-10-10T10:05:26.472Z,63.96
2022-10-10T10:08:31.751Z,64.01
2022-10-10T10:11:28.833Z,63.91
2022-10-10T10:14:27.455Z,63.79
2022-10-10T10:17:16.841Z,64.00
2022-10-10T10:20:02.178Z,64.14
2022-10-10T10:22:47.701Z,64.09
2022-10-10T10:25:37.677Z,64.11
2022-10-10T10:28:23.447Z,64.02
2022-10-10T10:31:20.417Z,64.03
2022-10-10T10:34:20.806Z,64.14
2022-10-10T10:37:27.691Z,64.23
2022-10-10T10:40:29.846Z,64.22
2022-10-10T10:43:14.841Z,64.17
2022-10-10T10:46:11.731Z,64.34
2022-10-10T10:49:02.129Z,64.42
2022-10-10T10:51:50.680Z,64.42
2022-10-10T10:54:42.400Z,63.82
2022-10-10T10:57:45.447Z,62.63
2022-10-10T11:01:20.947Z,63.83
2022-10-10T11:05:20.169Z,63.91
2022-10-10T11:08:12.798Z,63.65
2022-10-10T11:11:23.445Z,63.83
2022-10-10T11:14:24.251Z,63.96
2022-10-10T11:17:30.073Z,63.88
2022-10-10T11:20:49.862Z,64.07
2022-10-10T11:24:06.299Z,64.10
2022-10-10T11:26:57.330Z,64.19
2022-10-10T11:29:59.014Z,64.11
2022-10-10T11:32:54.133Z,63.61
2022-10-10T11:35:46.469Z,63.55
2022-10-10T11:38:50.788Z,63.67
2022-10-10T11:42:15.018Z,63.82
2022-10-10T11:45:04.436Z,63.89
2022-10-10T11:47:52.881Z,63.97
2022-10-10T11:50:43.109Z,64.12
2022-10-10T11:53:41.311Z,64.04
2022-10-10T11:56:41.974Z,64.08
2022-10-10T11:59:49.563Z,64.21
2022-10-10T12:02:37.165Z,64.07
2022-10-10T12:05:29.010Z,64.23
2022-10-10T12:08:20.425Z,64.16
2022-10-10T12:11:24.869Z,64.19
2022-10-10T12:14:16.011Z,64.29
2022-10-10T12:17:01.717Z,64.35
2022-10-10T12:19:50.361Z,64.41
2022-10-10T12:22:35.555Z,64.38
2022-10-10T12:25:25.363Z,64.42
2022-10-10T12:28:13.943Z,64.22
2022-10-10T12:31:05.848Z,64.01
2022-10-10T12:33:51.309Z,64.13
2022-10-10T12:36:39.601Z,64.19
2022-10-10T12:39:24.994Z,64.20
2022-10-10T12:42:59.653Z,64.18
2022-10-10T12:45:53.674Z,64.19
2022-10-10T12:48:39.598Z,64.07
2022-10-10T12:51:25.585Z,64.54
2022-10-10T12:54:28.388Z,64.17
2022-10-10T12:57:25.737Z,64.36
2022-10-10T13:00:19.194Z,64.36
2022-10-10T13:03:13.198Z,64.29
2022-10-10T13:06:25.830Z,63.95
2022-10-10T13:09:24.153Z,63.88
2022-10-10T13:12:23.369Z,64.58
2022-10-10T13:15:20.413Z,64.85
2022-10-10T13:18:06.086Z,64.97
2022-10-10T13:20:56.273Z,65.18
2022-10-10T13:26:53.483Z,65.14
2022-10-10T13:29:40.908Z,65.45
2022-10-10T13:32:29.178Z,65.47
2022-10-10T13:35:18.678Z,65.48
2022-10-10T13:38:06.030Z,65.46
2022-10-10T13:40:52.478Z,65.51
2022-10-10T13:43:40.602Z,65.46
2022-10-10T13:46:33.730Z,65.63
2022-10-10T13:49:30.073Z,65.76
2022-10-10T13:52:24.649Z,66.13
2022-10-10T13:55:22.684Z,66.12
2022-10-10T13:58:11.217Z,66.32
2022-10-10T14:01:04.686Z,66.29
2022-10-10T14:03:51.781Z,66.12
2022-10-10T14:06:37.371Z,66.26
2022-10-10T14:09:31.075Z,66.22
2022-10-10T14:12:27.503Z,66.31
2022-10-10T14:15:40.875Z,66.26
2022-10-10T14:18:26.463Z,66.29
2022-10-10T14:21:12.232Z,66.42
2022-10-10T14:23:57.740Z,66.54
2022-10-10T14:26:43.674Z,66.46
2022-10-10T14:29:29.595Z,66.14
2022-10-10T14:32:15.459Z,65.26
2022-10-10T14:35:00.844Z,65.92
2022-10-10T14:37:46.143Z,65.95
2022-10-10T14:40:33.139Z,65.93
2022-10-10T14:43:23.625Z,66.21
2022-10-10T14:46:17.799Z,66.44
2022-10-10T14:49:03.607Z,67.13
2022-10-10T14:51:49.033Z,66.50
2022-10-10T14:54:34.693Z,66.78
2022-10-10T14:57:22.295Z,66.47
2022-10-10T15:00:13.824Z,66.64
2022-10-10T15:02:59.290Z,66.46
2022-10-10T15:05:45.271Z,65.68
2022-10-10T15:08:30.786Z,65.95
2022-10-10T15:11:17.951Z,65.82
2022-10-10T15:14:03.166Z,65.86
2022-10-10T15:16:48.995Z,65.88
2022-10-10T15:19:34.619Z,66.02
2022-10-10T15:22:20.261Z,65.97
2022-10-10T15:25:07.697Z,65.95
2022-10-10T15:27:53.080Z,66.08
2022-10-10T15:30:42.868Z,66.20
2022-10-10T15:33:28.862Z,66.34
2022-10-10T15:36:18.394Z,66.64
2022-10-10T15:39:04.335Z,66.87
2022-10-10T15:41:49.897Z,65.12
2022-10-10T15:44:35.476Z,65.08
2022-10-10T15:47:21.681Z,65.67
2022-10-10T15:50:09.701Z,66.13
2022-10-10T15:52:55.192Z,66.20
2022-10-10T15:55:45.684Z,66.20
2022-10-10T15:58:30.788Z,66.19
2022-10-10T16:01:18.822Z,66.18
2022-10-10T16:04:06.352Z,66.18
2022-10-10T16:06:59.516Z,68.08
2022-10-10T16:09:58.920Z,66.83
2022-10-10T16:12:44.217Z,67.54
2022-10-10T16:15:29.455Z,67.56
2022-10-10T16:18:14.766Z,68.62
2022-10-10T16:21:00.527Z,68.67
2022-10-10T16:23:47.860Z,68.51
2022-10-10T16:26:35.468Z,67.94
2022-10-10T16:29:21.029Z,67.83
2022-10-10T16:32:06.313Z,67.95
2022-10-10T16:34:51.757Z,68.14
2022-10-10T16:37:38.041Z,68.28
2022-10-10T16:40:24.235Z,68.22
2022-10-10T16:43:09.968Z,68.25
2022-10-10T16:45:55.499Z,68.40
2022-10-10T16:48:41.927Z,68.35
2022-10-10T16:51:29.810Z,68.11
2022-10-10T16:54:15.918Z,67.55
2022-10-10T16:57:01.454Z,67.86
2022-10-10T16:59:47.269Z,67.28
2022-10-10T17:02:33.402Z,66.92
2022-10-10T17:05:19.640Z,66.56
2022-10-10T17:08:05.012Z,66.42
2022-10-10T17:10:50.289Z,66.49
2022-10-10T17:13:37.453Z,66.37
2022-10-10T17:17:07.156Z,66.76
2022-10-10T17:19:33.868Z,66.84
2022-10-10T17:22:19.181Z,67.03
2022-10-10T17:25:04.959Z,66.63
2022-10-10T17:27:50.469Z,66.78
2022-10-10T17:30:36.162Z,66.55
2022-10-10T17:33:22.300Z,66.24
2022-10-10T17:36:11.171Z,66.11
2022-10-10T17:38:57.169Z,65.99
2022-10-10T17:41:42.475Z,65.87
2022-10-10T17:44:28.451Z,65.92
2022-10-10T17:47:14.164Z,65.89
2022-10-10T17:49:59.980Z,65.67
2022-10-10T17:52:45.499Z,65.64
2022-10-10T17:55:31.353Z,65.65
2022-10-10T17:58:17.204Z,65.48
2022-10-10T18:01:03.878Z,65.43
2022-10-10T18:03:49.350Z,65.17
2022-10-10T18:06:37.764Z,65.55
2022-10-10T18:09:23.111Z,65.47
2022-10-10T18:12:08.512Z,65.51
2022-10-10T18:14:54.724Z,65.46
2022-10-10T18:17:40.328Z,65.47
2022-10-10T18:20:26.009Z,65.46
2022-10-10T18:23:11.230Z,65.38
2022-10-10T18:26:05.425Z,65.44
2022-10-10T18:28:52.786Z,65.30
2022-10-10T18:31:39.211Z,65.32
2022-10-10T18:34:24.758Z,65.30
2022-10-10T18:37:10.754Z,65.30
2022-10-10T18:39:56.306Z,65.25
2022-10-10T18:42:42.228Z,65.42
2022-10-10T18:45:28.071Z,65.21
2022-10-10T18:48:13.636Z,65.24
2022-10-10T18:51:03.388Z,65.28
2022-10-10T18:53:48.778Z,65.38
2022-10-10T18:56:36.177Z,65.25
2022-10-10T18:59:22.243Z,65.22
2022-10-10T19:02:09.616Z,65.27
2022-10-10T19:04:55.131Z,65.22
2022-10-10T19:07:40.428Z,65.60
2022-10-10T19:10:25.965Z,65.05
2022-10-10T19:13:11.808Z,65.33
2022-10-10T19:16:03.929Z,65.32
2022-10-10T19:18:49.169Z,65.49
2022-10-10T19:21:37.197Z,65.52
2022-10-10T19:24:23.072Z,65.46
2022-10-10T19:27:08.309Z,65.56
2022-10-10T19:29:53.612Z,65.56
2022-10-10T19:32:39.004Z,65.69
2022-10-10T19:35:24.222Z,66.08
2022-10-10T19:38:10.761Z,65.95
2022-10-10T19:40:56.805Z,65.72
2022-10-10T19:43:44.446Z,65.85
2022-10-10T19:46:31.970Z,65.73
2022-10-10T19:49:18.838Z,65.68
2022-10-10T19:52:04.972Z,65.98
2022-10-10T19:54:52.986Z,65.91
2022-10-10T19:57:38.185Z,65.78
2022-10-10T20:00:23.557Z,65.98
2022-10-10T20:03:08.996Z,65.47
2022-10-10T20:06:00.542Z,65.87
2022-10-10T20:08:46.660Z,66.03
2022-10-10T20:11:32.485Z,65.88
2022-10-10T20:14:18.194Z,66.14
2022-10-10T20:17:03.580Z,66.04
2022-10-10T20:19:48.921Z,65.89
2022-10-10T20:22:34.618Z,65.76
2022-10-10T20:25:20.181Z,65.60
2022-10-10T20:28:05.876Z,65.84
2022-10-10T20:30:51.659Z,66.05
2022-10-10T20:33:37.286Z,65.83
2022-10-10T20:36:23.235Z,65.82
2022-10-10T20:39:12.864Z,65.75
2022-10-10T20:41:58.096Z,65.55
2022-10-10T20:44:43.309Z,65.47
2022-10-10T20:47:28.439Z,65.49
2022-10-10T20:50:14.327Z,65.33
2022-10-10T20:52:59.889Z,65.25
2022-10-10T20:55:45.178Z,65.30
2022-10-10T20:58:30.635Z,65.09
2022-10-10T21:01:19.020Z,65.23
2022-10-10T21:04:08.023Z,65.18
2022-10-10T21:06:53.440Z,65.25
2022-10-10T21:09:38.899Z,65.08
2022-10-10T21:12:24.083Z,65.27
2022-10-10T21:15:09.886Z,65.08
2022-10-10T21:17:55.543Z,64.59
2022-10-10T21:20:40.909Z,65.05
2022-10-10T21:23:27.309Z,64.89
2022-10-10T21:26:18.218Z,64.92
2022-10-10T21:29:04.007Z,64.90
2022-10-10T21:31:49.336Z,64.86
2022-10-10T21:34:34.526Z,64.73
2022-10-10T21:37:19.669Z,64.82
2022-10-10T21:40:05.494Z,64.74
2022-10-10T21:42:50.803Z,64.81
2022-10-10T21:45:38.092Z,64.75
2022-10-10T21:48:23.478Z,64.64
2022-10-10T21:51:09.408Z,64.80
2022-10-10T21:53:56.770Z,64.77
2022-10-10T21:56:42.221Z,64.73
2022-10-10T21:59:30.303Z,64.78
2022-10-10T22:02:15.601Z,64.80
2022-10-10T22:05:02.500Z,64.87
2022-10-10T22:07:47.531Z,64.79
2022-10-10T22:10:34.478Z,64.79
2022-10-10T22:13:20.069Z,64.95
2022-10-10T22:16:06.305Z,64.87
2022-10-10T22:18:56.522Z,64.75
2022-10-10T22:21:42.029Z,64.86
2022-10-10T22:24:27.238Z,64.84
2022-10-10T22:27:12.410Z,64.67
2022-10-10T22:29:57.635Z,64.69
2022-10-10T22:32:42.833Z,64.87
2022-10-10T22:35:28.186Z,64.71
2022-10-10T22:38:13.367Z,64.72
2022-10-10T22:40:58.553Z,64.82
2022-10-10T22:43:43.762Z,64.67
2022-10-10T22:46:29.549Z,64.78
2022-10-10T22:49:14.788Z,64.85
2022-10-10T22:52:00.149Z,64.76
2022-10-10T22:54:45.394Z,64.79
2022-10-10T22:57:30.643Z,64.81
2022-10-10T23:00:16.410Z,64.82
2022-10-10T23:03:01.599Z,64.82
2022-10-10T23:05:47.002Z,64.91
2022-10-10T23:08:33.391Z,64.82
2022-10-10T23:11:18.539Z,64.73
2022-10-10T23:14:04.700Z,64.70
2022-10-10T23:16:49.767Z,64.56
2022-10-10T23:19:35.123Z,64.71
2022-10-10T23:22:20.398Z,64.53
2022-10-10T23:25:06.138Z,64.25
2022-10-10T23:27:51.524Z,64.46
2022-10-10T23:30:44.123Z,64.27
2022-10-10T23:33:33.264Z,64.18
2022-10-10T23:36:21.403Z,63.75
2022-10-10T23:39:09.827Z,64.05
2022-10-10T23:41:55.633Z,63.71
2022-10-10T23:44:40.820Z,63.85
2022-10-10T23:47:26.270Z,63.85
2022-10-10T23:50:12.000Z,63.77
2022-10-10T23:52:57.407Z,63.70
2022-10-10T23:55:42.906Z,63.83
2022-10-10T23:58:28.144Z,63.86
